BVR114 KTPA-KJFK
Flight info
| Callsign | BVR114 |
|---|---|
| Flight time | 2h 2m |
| Altitude | 38000 |
| Route | BAYPO2 CAMJO Q109 RAYVO Q87 HURTS SIE CAMRN5 |
| Aircraft | A343/H-SDE2E3FGHIJ4J5M1RWXY/LB1D1 |
Departure
| Time | 2026-05-08 07:13 |
|---|---|
| Airport | Tampa International Airport (KTPA) |
Arrival
| Time | 2026-05-08 09:15 |
|---|---|
| Airport | John F. Kennedy International Airport (KJFK) |
| Time | Latitude | Longitude | Altitude | Speed | Heading |
|---|---|---|---|---|---|
| 2026-05-08 06:47 | 27.98108 | -82.53883 | 48 ft | 0 kts | 128° |
| 2026-05-08 07:01 | 27.98124 | -82.53906 | 46 ft | 4 kts | 128° |
| 2026-05-08 07:01 | 27.98140 | -82.53930 | 47 ft | 4 kts | 116° |
| 2026-05-08 07:02 | 27.98145 | -82.53956 | 45 ft | 4 kts | 62° |
| 2026-05-08 07:02 | 27.98136 | -82.53967 | 44 ft | 4 kts | 10° |
| 2026-05-08 07:02 | 27.98131 | -82.53968 | 46 ft | 0 kts | 1° |
| 2026-05-08 07:08 | 27.98133 | -82.53968 | 51 ft | 1 kts | 1° |
| 2026-05-08 07:08 | 27.98137 | -82.53968 | 51 ft | 1 kts | 1° |
| 2026-05-08 07:08 | 27.98142 | -82.53968 | 51 ft | 2 kts | 1° |
| 2026-05-08 07:08 | 27.98191 | -82.53966 | 50 ft | 12 kts | 1° |
| 2026-05-08 07:09 | 27.98280 | -82.53966 | 49 ft | 12 kts | 352° |
| 2026-05-08 07:09 | 27.98338 | -82.54011 | 49 ft | 9 kts | 320° |
| 2026-05-08 07:09 | 27.98389 | -82.54035 | 49 ft | 7 kts | 349° |
| 2026-05-08 07:09 | 27.98442 | -82.54039 | 47 ft | 10 kts | 358° |
| 2026-05-08 07:10 | 27.98526 | -82.54038 | 50 ft | 15 kts | 2° |
| 2026-05-08 07:10 | 27.98646 | -82.54034 | 49 ft | 19 kts | 1° |
| 2026-05-08 07:10 | 27.98789 | -82.54029 | 48 ft | 21 kts | 2° |
| 2026-05-08 07:10 | 27.98931 | -82.54024 | 48 ft | 20 kts | 2° |
| 2026-05-08 07:11 | 27.99072 | -82.54019 | 51 ft | 20 kts | 1° |
| 2026-05-08 07:11 | 27.99209 | -82.54015 | 50 ft | 18 kts | 358° |
| 2026-05-08 07:11 | 27.99278 | -82.54060 | 50 ft | 8 kts | 294° |
| 2026-05-08 07:11 | 27.99276 | -82.54102 | 51 ft | 7 kts | 251° |
| 2026-05-08 07:12 | 27.99232 | -82.54134 | 51 ft | 8 kts | 188° |
| 2026-05-08 07:12 | 27.99209 | -82.54136 | 49 ft | 0 kts | 183° |
| 2026-05-08 07:12 | 27.99208 | -82.54136 | 49 ft | 2 kts | 183° |
| 2026-05-08 07:12 | 27.99041 | -82.54143 | 49 ft | 51 kts | 181° |
| 2026-05-08 07:13 | 27.98540 | -82.54160 | 49 ft | 94 kts | 181° |
| 2026-05-08 07:13 | 27.97729 | -82.54186 | 51 ft | 135 kts | 181° |
| 2026-05-08 07:13 | 27.96680 | -82.54202 | 252 ft | 162 kts | 181° |
| 2026-05-08 07:13 | 27.95509 | -82.54210 | 790 ft | 172 kts | 184° |
| 2026-05-08 07:14 | 27.94432 | -82.54779 | 1270 ft | 180 kts | 232° |
| 2026-05-08 07:14 | 27.94061 | -82.56153 | 1586 ft | 199 kts | 278° |
| 2026-05-08 07:14 | 27.94746 | -82.57585 | 1938 ft | 227 kts | 320° |
| 2026-05-08 07:14 | 27.96261 | -82.58213 | 2590 ft | 245 kts | 358° |
| 2026-05-08 07:15 | 27.97950 | -82.57705 | 3431 ft | 257 kts | 22° |
| 2026-05-08 07:15 | 27.99720 | -82.57296 | 4177 ft | 264 kts | 356° |
| 2026-05-08 07:15 | 28.01561 | -82.57433 | 5048 ft | 269 kts | 354° |
| 2026-05-08 07:15 | 28.03435 | -82.57559 | 5913 ft | 274 kts | 356° |
| 2026-05-08 07:16 | 28.05350 | -82.57627 | 6792 ft | 277 kts | 357° |
| 2026-05-08 07:16 | 28.07306 | -82.57656 | 7652 ft | 281 kts | 358° |
| 2026-05-08 07:16 | 28.09279 | -82.57664 | 8485 ft | 285 kts | 358° |
| 2026-05-08 07:16 | 28.11264 | -82.57659 | 9323 ft | 290 kts | 358° |
| 2026-05-08 07:17 | 28.13292 | -82.57648 | 10143 ft | 294 kts | 358° |
| 2026-05-08 07:17 | 28.15407 | -82.57635 | 10580 ft | 313 kts | 358° |
| 2026-05-08 07:17 | 28.17663 | -82.57620 | 10896 ft | 334 kts | 358° |
| 2026-05-08 07:17 | 28.20012 | -82.57601 | 11284 ft | 348 kts | 358° |
| 2026-05-08 07:18 | 28.22480 | -82.57635 | 11891 ft | 355 kts | 355° |
| 2026-05-08 07:18 | 28.24951 | -82.57719 | 12532 ft | 361 kts | 355° |
| 2026-05-08 07:18 | 28.27489 | -82.57806 | 13198 ft | 366 kts | 354° |
| 2026-05-08 07:18 | 28.30036 | -82.57888 | 13859 ft | 371 kts | 354° |
| 2026-05-08 07:19 | 28.32637 | -82.57968 | 14477 ft | 374 kts | 354° |
| 2026-05-08 07:19 | 28.35233 | -82.58046 | 15139 ft | 376 kts | 354° |
| 2026-05-08 07:19 | 28.37883 | -82.58125 | 15830 ft | 378 kts | 353° |
| 2026-05-08 07:19 | 28.40493 | -82.58193 | 16530 ft | 381 kts | 353° |
| 2026-05-08 07:20 | 28.43168 | -82.58256 | 17239 ft | 384 kts | 353° |
| 2026-05-08 07:20 | 28.45853 | -82.58321 | 17962 ft | 386 kts | 353° |
| 2026-05-08 07:20 | 28.48521 | -82.58387 | 18620 ft | 389 kts | 352° |
| 2026-05-08 07:20 | 28.51243 | -82.58455 | 19190 ft | 393 kts | 352° |
| 2026-05-08 07:21 | 28.54002 | -82.58525 | 19766 ft | 396 kts | 352° |
| 2026-05-08 07:21 | 28.56740 | -82.58593 | 20340 ft | 399 kts | 352° |
| 2026-05-08 07:21 | 28.59537 | -82.58664 | 20919 ft | 402 kts | 352° |
| 2026-05-08 07:21 | 28.62363 | -82.58735 | 21479 ft | 406 kts | 352° |
| 2026-05-08 07:22 | 28.65205 | -82.58807 | 22033 ft | 409 kts | 352° |
| 2026-05-08 07:22 | 28.68006 | -82.59003 | 22578 ft | 408 kts | 347° |
| 2026-05-08 07:22 | 28.70843 | -82.59370 | 23121 ft | 410 kts | 346° |
| 2026-05-08 07:22 | 28.73663 | -82.59765 | 23657 ft | 413 kts | 346° |
| 2026-05-08 07:23 | 28.76542 | -82.60170 | 24111 ft | 416 kts | 346° |
| 2026-05-08 07:23 | 28.79426 | -82.60575 | 24570 ft | 418 kts | 346° |
| 2026-05-08 07:23 | 28.82335 | -82.60982 | 25010 ft | 421 kts | 346° |
| 2026-05-08 07:23 | 28.85229 | -82.61386 | 25433 ft | 424 kts | 345° |
| 2026-05-08 07:24 | 28.88174 | -82.61798 | 25876 ft | 426 kts | 345° |
| 2026-05-08 07:24 | 28.91104 | -82.62207 | 26296 ft | 429 kts | 345° |
| 2026-05-08 07:24 | 28.94090 | -82.62625 | 26710 ft | 431 kts | 345° |
| 2026-05-08 07:24 | 28.97047 | -82.63039 | 27111 ft | 434 kts | 345° |
| 2026-05-08 07:25 | 29.00069 | -82.63461 | 27513 ft | 436 kts | 345° |
| 2026-05-08 07:25 | 29.03108 | -82.63887 | 27915 ft | 439 kts | 345° |
| 2026-05-08 07:25 | 29.09188 | -82.64739 | 28704 ft | 443 kts | 345° |
| 2026-05-08 07:26 | 29.12262 | -82.65170 | 29063 ft | 446 kts | 345° |
| 2026-05-08 07:26 | 29.15333 | -82.65601 | 29421 ft | 448 kts | 345° |
| 2026-05-08 07:26 | 29.18435 | -82.66037 | 29774 ft | 451 kts | 345° |
| 2026-05-08 07:26 | 29.21560 | -82.66476 | 30123 ft | 453 kts | 345° |
| 2026-05-08 07:27 | 29.24673 | -82.66914 | 30395 ft | 455 kts | 345° |
| 2026-05-08 07:27 | 29.27838 | -82.67359 | 30661 ft | 458 kts | 345° |
| 2026-05-08 07:27 | 29.30996 | -82.67804 | 30949 ft | 460 kts | 345° |
| 2026-05-08 07:27 | 29.34190 | -82.68254 | 31262 ft | 462 kts | 344° |
| 2026-05-08 07:28 | 29.37383 | -82.68703 | 31550 ft | 464 kts | 344° |
| 2026-05-08 07:28 | 29.40576 | -82.69140 | 31819 ft | 467 kts | 346° |
| 2026-05-08 07:28 | 29.43870 | -82.69309 | 32146 ft | 474 kts | 351° |
| 2026-05-08 07:28 | 29.47137 | -82.69305 | 32515 ft | 474 kts | 351° |
| 2026-05-08 07:29 | 29.50432 | -82.69279 | 32865 ft | 474 kts | 351° |
| 2026-05-08 07:29 | 29.53768 | -82.69254 | 33218 ft | 473 kts | 351° |
| 2026-05-08 07:29 | 29.57049 | -82.69230 | 33566 ft | 473 kts | 351° |
| 2026-05-08 07:29 | 29.60313 | -82.69208 | 33891 ft | 473 kts | 351° |
| 2026-05-08 07:30 | 29.63618 | -82.69186 | 34226 ft | 472 kts | 351° |
| 2026-05-08 07:30 | 29.66867 | -82.69165 | 34528 ft | 471 kts | 351° |
| 2026-05-08 07:30 | 29.70170 | -82.69143 | 34871 ft | 469 kts | 351° |
| 2026-05-08 07:30 | 29.73386 | -82.69122 | 35207 ft | 467 kts | 351° |
| 2026-05-08 07:31 | 29.76624 | -82.69101 | 35539 ft | 465 kts | 351° |
| 2026-05-08 07:31 | 29.79869 | -82.69080 | 35868 ft | 463 kts | 351° |
| 2026-05-08 07:31 | 29.83066 | -82.69060 | 36174 ft | 461 kts | 351° |
| 2026-05-08 07:31 | 29.86298 | -82.69040 | 36465 ft | 460 kts | 351° |
| 2026-05-08 07:32 | 29.89491 | -82.69020 | 36778 ft | 459 kts | 351° |
| 2026-05-08 07:32 | 29.92646 | -82.69000 | 37111 ft | 457 kts | 350° |
| 2026-05-08 07:32 | 29.95819 | -82.68980 | 37467 ft | 454 kts | 350° |
| 2026-05-08 07:32 | 29.98975 | -82.68960 | 37788 ft | 452 kts | 350° |
| 2026-05-08 07:33 | 30.02134 | -82.68946 | 37932 ft | 454 kts | 349° |
| 2026-05-08 07:33 | 30.08401 | -82.68906 | 37946 ft | 449 kts | 350° |
| 2026-05-08 07:34 | 30.14666 | -82.68864 | 37951 ft | 448 kts | 350° |
| 2026-05-08 07:34 | 30.20893 | -82.68826 | 37981 ft | 448 kts | 349° |
| 2026-05-08 07:35 | 30.27083 | -82.68787 | 37943 ft | 446 kts | 349° |
| 2026-05-08 07:35 | 30.33284 | -82.68749 | 37938 ft | 446 kts | 349° |
| 2026-05-08 07:36 | 30.39490 | -82.68711 | 37937 ft | 446 kts | 349° |
| 2026-05-08 07:36 | 30.45698 | -82.68672 | 37932 ft | 446 kts | 349° |
| 2026-05-08 07:37 | 30.51893 | -82.68634 | 37931 ft | 446 kts | 349° |
| 2026-05-08 07:37 | 30.58129 | -82.68597 | 37927 ft | 446 kts | 349° |
| 2026-05-08 07:38 | 30.64323 | -82.68409 | 37928 ft | 455 kts | 355° |
| 2026-05-08 07:38 | 30.70636 | -82.67044 | 37928 ft | 465 kts | 1° |
| 2026-05-08 07:39 | 30.76943 | -82.65287 | 37935 ft | 467 kts | 2° |
| 2026-05-08 07:39 | 30.83244 | -82.63466 | 37925 ft | 467 kts | 2° |
| 2026-05-08 07:40 | 30.89577 | -82.61662 | 37924 ft | 466 kts | 2° |
| 2026-05-08 07:40 | 30.95861 | -82.59892 | 37941 ft | 466 kts | 2° |
| 2026-05-08 07:41 | 31.02149 | -82.58125 | 37946 ft | 466 kts | 2° |
| 2026-05-08 07:41 | 31.08474 | -82.56124 | 37946 ft | 479 kts | 10° |
| 2026-05-08 07:42 | 31.14591 | -82.52783 | 37940 ft | 489 kts | 16° |
| 2026-05-08 07:42 | 31.20640 | -82.49118 | 37944 ft | 491 kts | 17° |
| 2026-05-08 07:43 | 31.26640 | -82.45425 | 37943 ft | 491 kts | 17° |
| 2026-05-08 07:43 | 31.32712 | -82.41706 | 37949 ft | 491 kts | 16° |
| 2026-05-08 07:44 | 31.38776 | -82.38009 | 37941 ft | 492 kts | 16° |
| 2026-05-08 07:44 | 31.44806 | -82.34330 | 37940 ft | 492 kts | 16° |
| 2026-05-08 07:45 | 31.50892 | -82.30610 | 37940 ft | 492 kts | 16° |
| 2026-05-08 07:45 | 31.56944 | -82.26906 | 37978 ft | 492 kts | 16° |
| 2026-05-08 07:46 | 31.63013 | -82.23187 | 37944 ft | 492 kts | 16° |
| 2026-05-08 07:46 | 31.69097 | -82.19453 | 37938 ft | 493 kts | 16° |
| 2026-05-08 07:47 | 31.75174 | -82.15716 | 37942 ft | 493 kts | 16° |
| 2026-05-08 07:47 | 31.81250 | -82.11975 | 37950 ft | 493 kts | 16° |
| 2026-05-08 07:48 | 31.87308 | -82.08240 | 37951 ft | 494 kts | 15° |
| 2026-05-08 07:48 | 31.93391 | -82.04485 | 37947 ft | 495 kts | 15° |
| 2026-05-08 07:49 | 31.99472 | -82.00723 | 37958 ft | 495 kts | 15° |
| 2026-05-08 07:49 | 32.05574 | -81.96943 | 37956 ft | 495 kts | 15° |
| 2026-05-08 07:50 | 32.11656 | -81.93166 | 37962 ft | 496 kts | 15° |
| 2026-05-08 07:50 | 32.14627 | -81.90950 | 37955 ft | 512 kts | 26° |
| 2026-05-08 07:50 | 32.17416 | -81.88253 | 37954 ft | 519 kts | 30° |
| 2026-05-08 07:51 | 32.22804 | -81.82559 | 37954 ft | 523 kts | 32° |
| 2026-05-08 07:51 | 32.28162 | -81.76694 | 37952 ft | 524 kts | 32° |
| 2026-05-08 07:52 | 32.33512 | -81.70842 | 37950 ft | 524 kts | 32° |
| 2026-05-08 07:52 | 32.38859 | -81.65020 | 37928 ft | 525 kts | 31° |
| 2026-05-08 07:53 | 32.44233 | -81.59177 | 37943 ft | 525 kts | 31° |
| 2026-05-08 07:53 | 32.49637 | -81.53290 | 37942 ft | 525 kts | 32° |
| 2026-05-08 07:54 | 32.54972 | -81.47469 | 37938 ft | 525 kts | 32° |
| 2026-05-08 07:54 | 32.60364 | -81.41574 | 37988 ft | 525 kts | 31° |
| 2026-05-08 07:55 | 32.65745 | -81.35690 | 37939 ft | 526 kts | 31° |
| 2026-05-08 07:55 | 32.71112 | -81.29802 | 37940 ft | 527 kts | 31° |
| 2026-05-08 07:56 | 32.76481 | -81.23895 | 37938 ft | 526 kts | 31° |
| 2026-05-08 07:56 | 32.81825 | -81.18007 | 37958 ft | 525 kts | 31° |
| 2026-05-08 07:57 | 32.87188 | -81.12092 | 37963 ft | 525 kts | 31° |
| 2026-05-08 07:57 | 32.92529 | -81.06194 | 37948 ft | 526 kts | 31° |
| 2026-05-08 07:58 | 32.97008 | -81.01239 | 37948 ft | 526 kts | 31° |
| 2026-05-08 07:58 | 33.03257 | -80.94312 | 37947 ft | 526 kts | 31° |
| 2026-05-08 07:59 | 33.07708 | -80.89369 | 37949 ft | 526 kts | 31° |
| 2026-05-08 07:59 | 33.13056 | -80.83421 | 37948 ft | 525 kts | 31° |
| 2026-05-08 08:00 | 33.18384 | -80.77486 | 37952 ft | 525 kts | 31° |
| 2026-05-08 08:00 | 33.23727 | -80.71524 | 37961 ft | 525 kts | 31° |
| 2026-05-08 08:01 | 33.29063 | -80.65559 | 37964 ft | 525 kts | 32° |
| 2026-05-08 08:01 | 33.34395 | -80.59588 | 37964 ft | 526 kts | 32° |
| 2026-05-08 08:02 | 33.39729 | -80.53606 | 37938 ft | 526 kts | 32° |
| 2026-05-08 08:02 | 33.45047 | -80.47610 | 37951 ft | 528 kts | 33° |
| 2026-05-08 08:02 | 33.47483 | -80.44227 | 37958 ft | 543 kts | 45° |
| 2026-05-08 08:03 | 33.49503 | -80.40403 | 37963 ft | 550 kts | 51° |
| 2026-05-08 08:03 | 33.53232 | -80.32354 | 37969 ft | 554 kts | 54° |
| 2026-05-08 08:04 | 33.56850 | -80.24136 | 38038 ft | 555 kts | 54° |
| 2026-05-08 08:04 | 33.60457 | -80.15954 | 37960 ft | 556 kts | 54° |
| 2026-05-08 08:05 | 33.64599 | -80.08367 | 37969 ft | 532 kts | 36° |
| 2026-05-08 08:05 | 33.67293 | -80.05455 | 37964 ft | 510 kts | 23° |
| 2026-05-08 08:05 | 33.70257 | -80.03230 | 37960 ft | 496 kts | 16° |
| 2026-05-08 08:06 | 33.76340 | -79.99388 | 37950 ft | 492 kts | 13° |
| 2026-05-08 08:06 | 33.82466 | -79.95741 | 37967 ft | 492 kts | 12° |
| 2026-05-08 08:07 | 33.88596 | -79.92063 | 37955 ft | 494 kts | 13° |
| 2026-05-08 08:07 | 33.94726 | -79.88334 | 37958 ft | 495 kts | 13° |
| 2026-05-08 08:08 | 34.00855 | -79.84580 | 37960 ft | 495 kts | 13° |
| 2026-05-08 08:08 | 34.06977 | -79.80823 | 37980 ft | 495 kts | 13° |
| 2026-05-08 08:09 | 34.13103 | -79.77059 | 37966 ft | 494 kts | 13° |
| 2026-05-08 08:09 | 34.19241 | -79.73282 | 37959 ft | 494 kts | 13° |
| 2026-05-08 08:10 | 34.25369 | -79.69506 | 37963 ft | 494 kts | 13° |
| 2026-05-08 08:10 | 34.31486 | -79.65735 | 37986 ft | 494 kts | 13° |
| 2026-05-08 08:11 | 34.37582 | -79.61967 | 37964 ft | 494 kts | 13° |
| 2026-05-08 08:11 | 34.43722 | -79.58173 | 37966 ft | 494 kts | 13° |
| 2026-05-08 08:12 | 34.49821 | -79.54388 | 37964 ft | 495 kts | 13° |
| 2026-05-08 08:12 | 34.55975 | -79.50563 | 37986 ft | 495 kts | 13° |
| 2026-05-08 08:13 | 34.62021 | -79.46590 | 37968 ft | 498 kts | 15° |
| 2026-05-08 08:13 | 34.68092 | -79.42425 | 37960 ft | 498 kts | 15° |
| 2026-05-08 08:14 | 34.74118 | -79.38316 | 37972 ft | 497 kts | 15° |
| 2026-05-08 08:14 | 34.80144 | -79.34222 | 37991 ft | 497 kts | 14° |
| 2026-05-08 08:15 | 34.86175 | -79.30126 | 37970 ft | 495 kts | 14° |
| 2026-05-08 08:15 | 34.92201 | -79.26034 | 37970 ft | 495 kts | 14° |
| 2026-05-08 08:16 | 34.98214 | -79.21947 | 37967 ft | 495 kts | 14° |
| 2026-05-08 08:16 | 35.04215 | -79.17859 | 37969 ft | 495 kts | 14° |
| 2026-05-08 08:17 | 35.10196 | -79.13773 | 37959 ft | 494 kts | 14° |
| 2026-05-08 08:17 | 35.16189 | -79.09676 | 37962 ft | 494 kts | 14° |
| 2026-05-08 08:18 | 35.22176 | -79.05578 | 37952 ft | 494 kts | 14° |
| 2026-05-08 08:18 | 35.28196 | -79.01449 | 37975 ft | 494 kts | 14° |
| 2026-05-08 08:19 | 35.34163 | -78.97347 | 37961 ft | 494 kts | 14° |
| 2026-05-08 08:19 | 35.40139 | -78.93235 | 37970 ft | 494 kts | 14° |
| 2026-05-08 08:20 | 35.46164 | -78.89086 | 37973 ft | 494 kts | 14° |
| 2026-05-08 08:20 | 35.52120 | -78.84971 | 37973 ft | 494 kts | 14° |
| 2026-05-08 08:21 | 35.58100 | -78.80827 | 37976 ft | 494 kts | 14° |
| 2026-05-08 08:21 | 35.64082 | -78.76684 | 37979 ft | 494 kts | 14° |
| 2026-05-08 08:22 | 35.70097 | -78.72505 | 37961 ft | 494 kts | 14° |
| 2026-05-08 08:22 | 35.76074 | -78.68342 | 37960 ft | 495 kts | 13° |
| 2026-05-08 08:23 | 35.82067 | -78.64164 | 37966 ft | 496 kts | 13° |
| 2026-05-08 08:23 | 35.88071 | -78.59971 | 37978 ft | 496 kts | 14° |
| 2026-05-08 08:24 | 35.94065 | -78.55778 | 37986 ft | 496 kts | 14° |
| 2026-05-08 08:24 | 36.00097 | -78.51552 | 37990 ft | 497 kts | 13° |
| 2026-05-08 08:25 | 36.06105 | -78.47338 | 37997 ft | 498 kts | 13° |
| 2026-05-08 08:25 | 36.12122 | -78.43107 | 37995 ft | 498 kts | 13° |
| 2026-05-08 08:26 | 36.18132 | -78.38872 | 38025 ft | 498 kts | 13° |
| 2026-05-08 08:26 | 36.24104 | -78.34403 | 37975 ft | 517 kts | 21° |
| 2026-05-08 08:27 | 36.29750 | -78.28614 | 37973 ft | 530 kts | 27° |
| 2026-05-08 08:27 | 36.35206 | -78.22482 | 37971 ft | 532 kts | 28° |
| 2026-05-08 08:28 | 36.40681 | -78.16246 | 38017 ft | 532 kts | 27° |
| 2026-05-08 08:28 | 36.46147 | -78.10065 | 37975 ft | 533 kts | 27° |
| 2026-05-08 08:29 | 36.51650 | -78.03868 | 37969 ft | 533 kts | 27° |
| 2026-05-08 08:29 | 36.57138 | -77.97682 | 38021 ft | 534 kts | 27° |
| 2026-05-08 08:30 | 36.62604 | -77.91508 | 38090 ft | 534 kts | 27° |
| 2026-05-08 08:30 | 36.70869 | -77.82148 | 38002 ft | 535 kts | 27° |
| 2026-05-08 08:31 | 36.76378 | -77.75891 | 37980 ft | 535 kts | 27° |
| 2026-05-08 08:31 | 36.81869 | -77.69641 | 37982 ft | 535 kts | 27° |
| 2026-05-08 08:32 | 36.87359 | -77.63381 | 37978 ft | 535 kts | 28° |
| 2026-05-08 08:32 | 36.92879 | -77.57071 | 37964 ft | 535 kts | 28° |
| 2026-05-08 08:33 | 36.98364 | -77.50793 | 37967 ft | 536 kts | 28° |
| 2026-05-08 08:33 | 37.03847 | -77.44504 | 37968 ft | 536 kts | 28° |
| 2026-05-08 08:34 | 37.09335 | -77.38197 | 37972 ft | 536 kts | 28° |
| 2026-05-08 08:34 | 37.14815 | -77.31882 | 37977 ft | 536 kts | 28° |
| 2026-05-08 08:35 | 37.20306 | -77.25544 | 37974 ft | 536 kts | 28° |
| 2026-05-08 08:35 | 37.25768 | -77.19227 | 38035 ft | 536 kts | 29° |
| 2026-05-08 08:36 | 37.31260 | -77.12860 | 37962 ft | 536 kts | 29° |
| 2026-05-08 08:36 | 37.36732 | -77.06501 | 37959 ft | 536 kts | 29° |
| 2026-05-08 08:37 | 37.42187 | -77.00151 | 37962 ft | 536 kts | 29° |
| 2026-05-08 08:37 | 37.47679 | -76.93725 | 38001 ft | 539 kts | 31° |
| 2026-05-08 08:38 | 37.52922 | -76.86992 | 37971 ft | 542 kts | 33° |
| 2026-05-08 08:38 | 37.58179 | -76.80195 | 37972 ft | 542 kts | 33° |
| 2026-05-08 08:39 | 37.63477 | -76.73382 | 37969 ft | 542 kts | 33° |
| 2026-05-08 08:39 | 37.68760 | -76.66588 | 37961 ft | 542 kts | 33° |
| 2026-05-08 08:40 | 37.74041 | -76.59786 | 37949 ft | 542 kts | 33° |
| 2026-05-08 08:40 | 37.79305 | -76.52993 | 37940 ft | 542 kts | 33° |
| 2026-05-08 08:41 | 37.84588 | -76.46163 | 37934 ft | 543 kts | 33° |
| 2026-05-08 08:41 | 37.89841 | -76.39356 | 37931 ft | 542 kts | 34° |
| 2026-05-08 08:42 | 37.95111 | -76.32509 | 37934 ft | 541 kts | 34° |
| 2026-05-08 08:42 | 38.00373 | -76.25662 | 37932 ft | 541 kts | 34° |
| 2026-05-08 08:43 | 38.05603 | -76.18839 | 37930 ft | 542 kts | 34° |
| 2026-05-08 08:43 | 38.10869 | -76.11955 | 37923 ft | 540 kts | 35° |
| 2026-05-08 08:44 | 38.16096 | -76.05105 | 37930 ft | 539 kts | 35° |
| 2026-05-08 08:44 | 38.21315 | -75.98254 | 37920 ft | 539 kts | 35° |
| 2026-05-08 08:45 | 38.26505 | -75.91425 | 37924 ft | 540 kts | 35° |
| 2026-05-08 08:45 | 38.31735 | -75.84527 | 37919 ft | 538 kts | 36° |
| 2026-05-08 08:46 | 38.36911 | -75.77685 | 37906 ft | 537 kts | 36° |
| 2026-05-08 08:46 | 38.42080 | -75.70840 | 37923 ft | 537 kts | 36° |
| 2026-05-08 08:47 | 38.47281 | -75.63935 | 37978 ft | 538 kts | 36° |
| 2026-05-08 08:47 | 38.52448 | -75.57060 | 37967 ft | 536 kts | 36° |
| 2026-05-08 08:48 | 38.57593 | -75.50200 | 37971 ft | 536 kts | 36° |
| 2026-05-08 08:48 | 38.62770 | -75.43282 | 37962 ft | 537 kts | 36° |
| 2026-05-08 08:49 | 38.67894 | -75.36421 | 37990 ft | 537 kts | 36° |
| 2026-05-08 08:49 | 38.73046 | -75.29505 | 37888 ft | 536 kts | 36° |
| 2026-05-08 08:50 | 38.74761 | -75.27198 | 37705 ft | 536 kts | 36° |
| 2026-05-08 08:50 | 38.78140 | -75.22640 | 37498 ft | 524 kts | 36° |
| 2026-05-08 08:50 | 38.79836 | -75.20348 | 37319 ft | 520 kts | 36° |
| 2026-05-08 08:50 | 38.82315 | -75.17007 | 36719 ft | 521 kts | 36° |
| 2026-05-08 08:51 | 38.84796 | -75.13666 | 36136 ft | 522 kts | 36° |
| 2026-05-08 08:51 | 38.87324 | -75.10257 | 35550 ft | 525 kts | 36° |
| 2026-05-08 08:51 | 38.89823 | -75.06881 | 34895 ft | 529 kts | 36° |
| 2026-05-08 08:51 | 38.92370 | -75.03435 | 34203 ft | 532 kts | 36° |
| 2026-05-08 08:52 | 38.94935 | -74.99960 | 33439 ft | 536 kts | 36° |
| 2026-05-08 08:52 | 38.97508 | -74.96467 | 32673 ft | 539 kts | 37° |
| 2026-05-08 08:52 | 39.00086 | -74.92964 | 31894 ft | 541 kts | 37° |
| 2026-05-08 08:52 | 39.02658 | -74.89464 | 31171 ft | 543 kts | 37° |
| 2026-05-08 08:53 | 39.05257 | -74.85917 | 30666 ft | 540 kts | 38° |
| 2026-05-08 08:53 | 39.07805 | -74.82437 | 30110 ft | 537 kts | 38° |
| 2026-05-08 08:53 | 39.10445 | -74.79110 | 29499 ft | 526 kts | 32° |
| 2026-05-08 08:53 | 39.13215 | -74.76063 | 28950 ft | 518 kts | 31° |
| 2026-05-08 08:54 | 39.15945 | -74.73122 | 28421 ft | 513 kts | 30° |
| 2026-05-08 08:54 | 39.18684 | -74.70172 | 27865 ft | 508 kts | 31° |
| 2026-05-08 08:54 | 39.21389 | -74.67253 | 27331 ft | 504 kts | 31° |
| 2026-05-08 08:54 | 39.24043 | -74.64384 | 26837 ft | 500 kts | 31° |
| 2026-05-08 08:55 | 39.26691 | -74.61518 | 26278 ft | 497 kts | 31° |
| 2026-05-08 08:55 | 39.29337 | -74.58650 | 25728 ft | 493 kts | 31° |
| 2026-05-08 08:55 | 39.31970 | -74.55791 | 25195 ft | 489 kts | 31° |
| 2026-05-08 08:55 | 39.34552 | -74.52986 | 24665 ft | 486 kts | 31° |
| 2026-05-08 08:56 | 39.37137 | -74.50174 | 24133 ft | 483 kts | 31° |
| 2026-05-08 08:56 | 39.39677 | -74.47409 | 23628 ft | 479 kts | 31° |
| 2026-05-08 08:56 | 39.42235 | -74.44624 | 23033 ft | 476 kts | 31° |
| 2026-05-08 08:56 | 39.44741 | -74.41895 | 22506 ft | 473 kts | 31° |
| 2026-05-08 08:57 | 39.47249 | -74.39153 | 21958 ft | 468 kts | 31° |
| 2026-05-08 08:57 | 39.49732 | -74.36436 | 21440 ft | 463 kts | 32° |
| 2026-05-08 08:57 | 39.52183 | -74.33752 | 20925 ft | 459 kts | 32° |
| 2026-05-08 08:57 | 39.54588 | -74.31117 | 20424 ft | 454 kts | 32° |
| 2026-05-08 08:58 | 39.57001 | -74.28471 | 19910 ft | 450 kts | 32° |
| 2026-05-08 08:58 | 39.59382 | -74.25863 | 19408 ft | 445 kts | 32° |
| 2026-05-08 08:58 | 39.61719 | -74.23302 | 18909 ft | 441 kts | 33° |
| 2026-05-08 08:58 | 39.64066 | -74.20720 | 18414 ft | 437 kts | 33° |
| 2026-05-08 08:59 | 39.66364 | -74.18190 | 17872 ft | 433 kts | 33° |
| 2026-05-08 08:59 | 39.68635 | -74.15690 | 17369 ft | 428 kts | 33° |
| 2026-05-08 08:59 | 39.70906 | -74.13190 | 16866 ft | 422 kts | 34° |
| 2026-05-08 08:59 | 39.73106 | -74.10758 | 16398 ft | 417 kts | 34° |
| 2026-05-08 09:00 | 39.75308 | -74.08322 | 15931 ft | 410 kts | 33° |
| 2026-05-08 09:00 | 39.77451 | -74.05951 | 15485 ft | 406 kts | 34° |
| 2026-05-08 09:00 | 39.79610 | -74.03562 | 15028 ft | 401 kts | 34° |
| 2026-05-08 09:00 | 39.81711 | -74.01237 | 14542 ft | 398 kts | 34° |
| 2026-05-08 09:01 | 39.83841 | -73.98956 | 14051 ft | 391 kts | 30° |
| 2026-05-08 09:01 | 39.86108 | -73.97137 | 13587 ft | 382 kts | 22° |
| 2026-05-08 09:01 | 39.88440 | -73.95486 | 13103 ft | 377 kts | 22° |
| 2026-05-08 09:01 | 39.90742 | -73.93873 | 12650 ft | 372 kts | 22° |
| 2026-05-08 09:02 | 39.92988 | -73.92293 | 12210 ft | 368 kts | 22° |
| 2026-05-08 09:02 | 39.95230 | -73.90712 | 11767 ft | 363 kts | 22° |
| 2026-05-08 09:02 | 39.97422 | -73.89162 | 11378 ft | 358 kts | 23° |
| 2026-05-08 09:02 | 39.99589 | -73.87623 | 11237 ft | 345 kts | 23° |
| 2026-05-08 09:03 | 40.01665 | -73.86146 | 11136 ft | 333 kts | 22° |
| 2026-05-08 09:03 | 40.03639 | -73.84705 | 10999 ft | 323 kts | 25° |
| 2026-05-08 09:03 | 40.05552 | -73.83191 | 10856 ft | 315 kts | 26° |
| 2026-05-08 09:03 | 40.07361 | -73.81703 | 10691 ft | 308 kts | 27° |
| 2026-05-08 09:04 | 40.09164 | -73.80209 | 10437 ft | 304 kts | 26° |
| 2026-05-08 09:04 | 40.10953 | -73.78735 | 10164 ft | 302 kts | 26° |
| 2026-05-08 09:04 | 40.12714 | -73.77298 | 9899 ft | 299 kts | 26° |
| 2026-05-08 09:04 | 40.14488 | -73.75860 | 9571 ft | 297 kts | 26° |
| 2026-05-08 09:05 | 40.16228 | -73.74457 | 9249 ft | 295 kts | 26° |
| 2026-05-08 09:05 | 40.17976 | -73.73049 | 8920 ft | 293 kts | 26° |
| 2026-05-08 09:05 | 40.19719 | -73.71645 | 8609 ft | 291 kts | 26° |
| 2026-05-08 09:05 | 40.21422 | -73.70274 | 8286 ft | 290 kts | 27° |
| 2026-05-08 09:06 | 40.23144 | -73.68886 | 7957 ft | 288 kts | 27° |
| 2026-05-08 09:06 | 40.24828 | -73.67527 | 7635 ft | 287 kts | 27° |
| 2026-05-08 09:06 | 40.26525 | -73.66156 | 7314 ft | 285 kts | 27° |
| 2026-05-08 09:06 | 40.28211 | -73.64792 | 6976 ft | 283 kts | 27° |
| 2026-05-08 09:07 | 40.29893 | -73.63434 | 6620 ft | 283 kts | 28° |
| 2026-05-08 09:07 | 40.31554 | -73.62091 | 6290 ft | 282 kts | 28° |
| 2026-05-08 09:07 | 40.33226 | -73.60736 | 5960 ft | 280 kts | 28° |
| 2026-05-08 09:07 | 40.34865 | -73.59406 | 5625 ft | 279 kts | 28° |
| 2026-05-08 09:08 | 40.36513 | -73.58065 | 5292 ft | 277 kts | 28° |
| 2026-05-08 09:08 | 40.38157 | -73.56752 | 4936 ft | 275 kts | 25° |
| 2026-05-08 09:08 | 40.39926 | -73.55903 | 4589 ft | 268 kts | 8° |
| 2026-05-08 09:08 | 40.41736 | -73.55520 | 4247 ft | 264 kts | 4° |
| 2026-05-08 09:09 | 40.43564 | -73.55229 | 3886 ft | 263 kts | 2° |
| 2026-05-08 09:09 | 40.45336 | -73.54969 | 3682 ft | 254 kts | 2° |
| 2026-05-08 09:09 | 40.47068 | -73.54720 | 3568 ft | 244 kts | 2° |
| 2026-05-08 09:09 | 40.48730 | -73.54484 | 3472 ft | 235 kts | 1° |
| 2026-05-08 09:10 | 40.50306 | -73.54265 | 3316 ft | 224 kts | 2° |
| 2026-05-08 09:10 | 40.51818 | -73.54068 | 3080 ft | 209 kts | 358° |
| 2026-05-08 09:10 | 40.53223 | -73.54214 | 3034 ft | 198 kts | 342° |
| 2026-05-08 09:10 | 40.54417 | -73.54909 | 3013 ft | 183 kts | 323° |
| 2026-05-08 09:11 | 40.55329 | -73.56052 | 2644 ft | 181 kts | 306° |
| 2026-05-08 09:11 | 40.56007 | -73.57435 | 2339 ft | 177 kts | 300° |
| 2026-05-08 09:11 | 40.56614 | -73.58798 | 2054 ft | 171 kts | 301° |
| 2026-05-08 09:11 | 40.57212 | -73.60143 | 1926 ft | 169 kts | 303° |
| 2026-05-08 09:12 | 40.57787 | -73.61426 | 1910 ft | 158 kts | 303° |
| 2026-05-08 09:12 | 40.58342 | -73.62655 | 1922 ft | 156 kts | 303° |
| 2026-05-08 09:12 | 40.58898 | -73.63876 | 1914 ft | 157 kts | 302° |
| 2026-05-08 09:12 | 40.59470 | -73.65132 | 1919 ft | 159 kts | 303° |
| 2026-05-08 09:13 | 40.60037 | -73.66371 | 1794 ft | 158 kts | 302° |
| 2026-05-08 09:13 | 40.60583 | -73.67565 | 1550 ft | 143 kts | 302° |
| 2026-05-08 09:13 | 40.61059 | -73.68619 | 1410 ft | 129 kts | 302° |
| 2026-05-08 09:13 | 40.61514 | -73.69626 | 1234 ft | 127 kts | 304° |
| 2026-05-08 09:14 | 40.61972 | -73.70634 | 1063 ft | 128 kts | 303° |
| 2026-05-08 09:14 | 40.62427 | -73.71636 | 874 ft | 128 kts | 305° |
| 2026-05-08 09:14 | 40.62888 | -73.72649 | 734 ft | 129 kts | 306° |
| 2026-05-08 09:14 | 40.63348 | -73.73663 | 548 ft | 129 kts | 306° |
| 2026-05-08 09:15 | 40.63807 | -73.74677 | 391 ft | 128 kts | 304° |
| 2026-05-08 09:15 | 40.64264 | -73.75691 | 203 ft | 126 kts | 304° |
| 2026-05-08 09:15 | 40.64708 | -73.76665 | 32 ft | 122 kts | 302° |
| 2026-05-08 09:15 | 40.64995 | -73.77297 | 27 ft | 37 kts | 300° |
| 2026-05-08 09:16 | 40.65050 | -73.77420 | 29 ft | 7 kts | 300° |
| 2026-05-08 09:16 | 40.65069 | -73.77463 | 29 ft | 7 kts | 301° |
| 2026-05-08 09:16 | 40.65106 | -73.77540 | 26 ft | 15 kts | 302° |
| 2026-05-08 09:16 | 40.65176 | -73.77696 | 27 ft | 22 kts | 301° |
| 2026-05-08 09:17 | 40.65214 | -73.77872 | 24 ft | 18 kts | 257° |
| 2026-05-08 09:17 | 40.65136 | -73.77987 | 28 ft | 17 kts | 215° |
| 2026-05-08 09:17 | 40.65081 | -73.78037 | 27 ft | 6 kts | 222° |
| 2026-05-08 09:17 | 40.65075 | -73.78128 | 27 ft | 9 kts | 295° |